Time;durP1;ratioP1;P1;durP2;ratioP2;P2;SDS_P1;SDS_P2;PMS_P1;PMS_P2;Temp;Humidity;BMP_temperature;BMP_pressure;BME280_temperature;BME280_humidity;BME280_pressure;Samples;Min_cycle;Max_cycle;Signal;HPM_P1;HPM_P2
2022/03/18 00:00:34;;;;;;;;;21.50;16.25;;;;;9.12;100.00;103155.56;4977894;28;44938;-78
2022/03/18 00:02:59;;;;;;;;;19.75;17.50;;;;;9.24;100.00;103179.75;4975986;28;45299;-80
2022/03/18 00:05:25;;;;;;;;;20.00;15.25;;;;;9.23;100.00;103176.13;4983194;28;45863;-82
2022/03/18 00:07:52;;;;;;;;;12.25;11.25;;;;;9.15;100.00;103155.50;4990077;28;45414;-81
2022/03/18 00:10:18;;;;;;;;;14.50;14.25;;;;;9.21;100.00;103172.53;4989417;28;45074;-81
2022/03/18 00:12:45;;;;;;;;;19.25;17.00;;;;;9.22;100.00;103173.44;4985843;28;45199;-81
2022/03/18 00:15:12;;;;;;;;;22.00;20.50;;;;;9.00;100.00;103151.31;4977060;28;45364;-78
2022/03/18 00:17:38;;;;;;;;;19.00;17.00;;;;;8.96;100.00;103146.88;4988130;28;45239;-80
2022/03/18 00:20:05;;;;;;;;;19.00;18.00;;;;;7.65;100.00;102934.56;4980715;28;45261;-79
2022/03/18 00:22:31;;;;;;;;;18.00;17.75;;;;;9.12;100.00;103177.28;4986619;28;45221;-78
2022/03/18 00:24:56;;;;;;;;;16.50;12.00;;;;;9.10;100.00;103172.78;4974676;28;45488;-79
2022/03/18 00:27:22;;;;;;;;;16.00;14.00;;;;;9.09;100.00;103172.84;4971869;28;44961;-78
2022/03/18 00:29:47;;;;;;;;;19.50;14.25;;;;;9.06;100.00;103173.78;4984544;28;45167;-79
2022/03/18 00:32:13;;;;;;;;;23.25;21.50;;;;;8.97;100.00;103167.66;4988508;28;45393;-78
2022/03/18 00:34:38;;;;;;;;;22.00;19.50;;;;;9.03;100.00;103190.16;4990090;28;45990;-79
2022/03/18 00:37:04;;;;;;;;;15.25;15.25;;;;;8.86;100.00;103165.16;4984062;28;44930;-80
2022/03/18 00:39:30;;;;;;;;;19.75;17.75;;;;;8.79;100.00;103152.69;4971252;28;45351;-80
2022/03/18 00:41:55;;;;;;;;;19.75;18.25;;;;;9.02;100.00;103195.59;4987560;28;45558;-79
2022/03/18 00:44:20;;;;;;;;;22.25;18.00;;;;;8.95;100.00;103186.69;4961647;28;47971;-79
2022/03/18 00:46:46;;;;;;;;;19.00;15.00;;;;;8.97;100.00;103186.66;4974742;28;45225;-79
2022/03/18 00:52:07;;;;;;;;;20.25;20.00;;;;;8.18;100.00;103068.03;4976193;28;45240;-80
2022/03/18 00:54:40;;;;;;;;;20.50;19.25;;;;;8.49;100.00;103127.09;4971100;28;45901;-79
2022/03/18 00:57:09;;;;;;;;;21.50;19.50;;;;;8.78;100.00;103181.63;4981433;28;45101;-80
2022/03/18 00:59:34;;;;;;;;;19.25;18.50;;;;;8.47;100.00;103127.13;4983592;28;48736;-80
2022/03/18 01:01:59;;;;;;;;;22.00;20.00;;;;;8.75;100.00;103191.63;4990598;28;46434;-79
2022/03/18 01:04:28;;;;;;;;;21.75;18.75;;;;;8.69;100.00;103189.94;4977192;28;46268;-80
2022/03/18 01:06:54;;;;;;;;;20.75;20.25;;;;;8.67;100.00;103185.47;4969797;28;45236;-80
2022/03/18 01:09:21;;;;;;;;;27.25;25.00;;;;;8.67;100.00;103185.47;4987490;28;45189;-80
2022/03/18 01:11:48;;;;;;;;;22.50;18.50;;;;;8.48;100.00;103158.72;4991493;28;45183;-80
2022/03/18 01:14:13;;;;;;;;;31.00;25.50;;;;;8.62;100.00;103192.78;4975304;28;45612;-80
2022/03/18 01:16:38;;;;;;;;;27.00;21.75;;;;;8.19;100.00;103123.13;4978306;28;44983;-79
2022/03/18 01:19:04;;;;;;;;;20.00;16.50;;;;;8.56;100.00;103191.09;4987688;28;44960;-79
2022/03/18 01:21:29;;;;;;;;;20.50;20.50;;;;;8.42;100.00;103171.53;4972174;28;44992;-79
2022/03/18 01:23:55;;;;;;;;;24.00;19.25;;;;;8.56;100.00;103200.13;4985090;28;45603;-79
2022/03/18 01:26:20;;;;;;;;;25.50;20.50;;;;;8.47;100.00;103199.44;4989558;28;45214;-80
2022/03/18 01:28:45;;;;;;;;;26.25;22.50;;;;;8.56;100.00;103210.97;4986649;28;45140;-80
2022/03/18 01:31:11;;;;;;;;;24.25;24.25;;;;;8.56;100.00;103207.38;4972138;28;45327;-80
2022/03/18 01:33:37;;;;;;;;;28.50;23.50;;;;;8.54;100.00;103201.97;4969793;28;47896;-80
2022/03/18 01:36:04;;;;;;;;;26.25;21.25;;;;;8.50;100.00;103196.63;4970467;28;45145;-78
2022/03/18 01:38:29;;;;;;;;;24.00;23.00;;;;;8.47;100.00;103211.16;4966029;28;45129;-79
2022/03/18 01:40:55;;;;;;;;;30.00;27.50;;;;;8.49;100.00;103212.03;4989759;28;45770;-79
2022/03/18 01:43:20;;;;;;;;;31.00;24.50;;;;;8.47;100.00;103202.16;4990625;28;45801;-79
2022/03/18 01:45:46;;;;;;;;;26.00;26.00;;;;;8.46;100.00;103209.34;4989521;28;45182;-79
2022/03/18 01:48:11;;;;;;;;;27.50;26.75;;;;;8.47;100.00;103203.03;4978860;28;45880;-79
2022/03/18 01:50:40;;;;;;;;;23.50;21.00;;;;;8.37;100.00;103181.56;4963616;28;45437;-79
2022/03/18 01:53:06;;;;;;;;;29.25;27.00;;;;;8.46;100.00;103213.88;4983786;28;45489;-80
2022/03/18 01:55:31;;;;;;;;;24.25;22.75;;;;;8.46;100.00;103211.16;4970538;28;45059;-79
2022/03/18 01:57:57;;;;;;;;;24.50;23.25;;;;;8.45;100.00;103213.00;4975532;28;45087;-79
2022/03/18 02:00:22;;;;;;;;;23.75;21.75;;;;;8.45;100.00;103207.56;4975473;28;45218;-79
2022/03/18 02:02:48;;;;;;;;;27.25;22.00;;;;;8.45;100.00;103212.09;4989577;28;47310;-79
2022/03/18 02:05:14;;;;;;;;;26.50;21.25;;;;;8.44;100.00;103203.09;4988727;28;44960;-79
2022/03/18 02:07:39;;;;;;;;;28.00;24.00;;;;;8.42;100.00;103204.03;4990917;28;45101;-79
2022/03/18 02:10:06;;;;;;;;;23.50;21.25;;;;;8.41;100.00;103213.97;4975319;28;45106;-79
2022/03/18 02:12:32;;;;;;;;;31.50;22.25;;;;;8.03;100.00;103146.91;4969973;28;45298;-79
2022/03/18 02:14:57;;;;;;;;;29.25;24.00;;;;;8.17;100.00;103177.34;4976085;28;45218;-79
2022/03/18 02:17:23;;;;;;;;;35.25;30.75;;;;;8.39;100.00;103212.22;4983288;28;45278;-79
2022/03/18 02:19:48;;;;;;;;;31.50;27.50;;;;;8.06;100.00;103155.88;4976084;28;45134;-79
2022/03/18 02:22:19;;;;;;;;;36.75;28.00;;;;;8.29;100.00;103206.94;4982240;28;45190;-79
2022/03/18 02:24:47;;;;;;;;;23.50;19.75;;;;;8.32;100.00;103223.16;4977262;28;45068;-79
2022/03/18 02:27:13;;;;;;;;;25.75;25.50;;;;;7.99;100.00;103165.00;4985549;28;44980;-79
2022/03/18 02:29:40;;;;;;;;;28.75;27.50;;;;;8.26;100.00;103223.25;4987175;28;45478;-79
2022/03/18 02:32:07;;;;;;;;;32.25;28.50;;;;;8.03;100.00;103182.13;4978481;28;45905;-79
2022/03/18 02:34:34;;;;;;;;;29.25;24.50;;;;;8.26;100.00;103219.63;4974767;28;45183;-80
2022/03/18 02:36:59;;;;;;;;;30.00;26.75;;;;;7.98;100.00;103156.94;4967662;28;45134;-79
2022/03/18 02:39:25;;;;;;;;;21.50;17.50;;;;;8.11;100.00;103184.69;4969726;28;45073;-79
2022/03/18 02:41:51;;;;;;;;;33.50;31.50;;;;;7.96;100.00;103153.38;4989345;28;45196;-79
2022/03/18 02:44:16;;;;;;;;;25.50;24.75;;;;;8.09;100.00;103176.59;4988793;28;45099;-79
2022/03/18 02:46:41;;;;;;;;;41.75;34.75;;;;;7.75;100.00;103136.53;4984123;28;45023;-79
2022/03/18 02:49:07;;;;;;;;;33.50;30.50;;;;;8.06;100.00;103191.09;4978313;28;45188;-79
2022/03/18 02:51:36;;;;;;;;;34.50;31.00;;;;;7.79;100.00;103145.50;4980285;28;45772;-79
2022/03/18 02:54:01;;;;;;;;;30.25;27.75;;;;;7.90;100.00;103170.59;4968645;28;45275;-79
2022/03/18 02:56:27;;;;;;;;;34.75;33.00;;;;;7.86;100.00;103158.03;4967271;28;45427;-79
2022/03/18 02:58:52;;;;;;;;;34.25;29.00;;;;;7.84;100.00;103157.16;4968966;28;45312;-81
2022/03/18 03:01:18;;;;;;;;;43.75;33.00;;;;;8.11;100.00;103204.56;4970232;28;46085;-79
2022/03/18 03:03:43;;;;;;;;;41.25;33.50;;;;;8.09;100.00;103214.50;4979946;28;45111;-79
2022/03/18 03:08:52;;;;;;;;;31.50;30.00;;;;;8.10;100.00;103219.00;4969314;28;45025;-79
2022/03/18 03:11:17;;;;;;;;;46.50;37.00;;;;;8.01;100.00;103206.53;4968873;28;46086;-78
2022/03/18 03:13:43;;;;;;;;;44.00;37.25;;;;;7.35;100.00;103098.44;4969070;28;45324;-78
2022/03/18 03:16:09;;;;;;;;;47.00;39.00;;;;;7.93;100.00;103194.94;4971396;28;45026;-79
2022/03/18 03:18:35;;;;;;;;;38.50;32.75;;;;;8.08;100.00;103231.69;4973576;28;44945;-79
2022/03/18 03:21:00;;;;;;;;;47.25;39.25;;;;;7.92;100.00;103209.41;4973497;28;45223;-78
2022/03/18 03:23:26;;;;;;;;;44.50;38.25;;;;;7.67;100.00;103179.09;4973291;28;44979;-79
2022/03/18 03:25:53;;;;;;;;;51.00;40.00;;;;;8.04;100.00;103238.09;4976871;28;45123;-79
2022/03/18 03:28:18;;;;;;;;;46.25;36.25;;;;;7.70;100.00;103188.97;4991407;28;45315;-79
2022/03/18 03:30:44;;;;;;;;;48.25;38.25;;;;;7.95;100.00;103240.94;4965280;28;46901;-79
2022/03/18 03:33:10;;;;;;;;;38.25;34.25;;;;;8.01;100.00;103240.88;4992602;28;45107;-79
2022/03/18 03:35:36;;;;;;;;;46.75;38.00;;;;;7.74;100.00;103201.56;4984412;28;45185;-79
2022/03/18 03:38:03;;;;;;;;;42.25;37.75;;;;;7.66;100.00;103196.28;4973114;28;45095;-79
2022/03/18 03:40:28;;;;;;;;;41.00;36.75;;;;;7.84;100.00;103232.09;4954745;28;47306;-79
2022/03/18 03:42:54;;;;;;;;;44.25;34.00;;;;;7.76;100.00;103213.28;4970517;28;45392;-79
2022/03/18 03:45:19;;;;;;;;;42.50;36.00;;;;;7.70;100.00;103205.22;4988494;28;45156;-79
2022/03/18 03:47:45;;;;;;;;;36.50;32.00;;;;;7.89;100.00;103241.94;4992162;28;45077;-80
2022/03/18 03:50:11;;;;;;;;;43.75;32.25;;;;;7.92;100.00;103238.28;4988915;28;46146;-79
2022/03/18 03:52:37;;;;;;;;;43.00;35.25;;;;;7.90;100.00;103242.81;4978001;28;45133;-79
2022/03/18 03:55:06;;;;;;;;;39.50;33.75;;;;;7.73;100.00;103213.31;4991802;28;45070;-79
2022/03/18 03:57:32;;;;;;;;;41.75;34.25;;;;;7.88;100.00;103239.25;4986354;28;45348;-79
2022/03/18 03:59:58;;;;;;;;;40.25;35.00;;;;;7.87;100.00;103237.47;4992420;28;45367;-80
2022/03/18 04:02:23;;;;;;;;;34.50;30.25;;;;;7.76;100.00;103238.53;4992027;28;44901;-79
2022/03/18 04:04:49;;;;;;;;;35.75;29.25;;;;;7.79;100.00;103254.72;4983667;28;45124;-79
2022/03/18 04:07:15;;;;;;;;;37.75;31.25;;;;;7.78;100.00;103255.63;4963654;28;45417;-79
2022/03/18 04:09:41;;;;;;;;;36.00;32.00;;;;;7.79;100.00;103256.53;4992295;28;45608;-79
2022/03/18 04:12:07;;;;;;;;;30.50;26.00;;;;;7.78;100.00;103261.06;4990999;28;45395;-79
2022/03/18 04:14:32;;;;;;;;;37.25;30.25;;;;;7.79;100.00;103252.00;4990475;28;45338;-80
2022/03/18 04:16:57;;;;;;;;;27.50;25.50;;;;;7.80;100.00;103255.59;4989882;28;45039;-79
2022/03/18 04:19:23;;;;;;;;;29.75;28.25;;;;;7.39;100.00;103193.97;4973651;28;45428;-79
2022/03/18 04:21:49;;;;;;;;;28.75;27.75;;;;;7.72;100.00;103253.03;4973031;28;45099;-79
2022/03/18 04:24:14;;;;;;;;;27.25;26.00;;;;;7.71;100.00;103264.78;4972333;28;45240;-80
2022/03/18 04:26:40;;;;;;;;;34.00;29.50;;;;;7.72;100.00;103268.38;4971870;28;45257;-79
2022/03/18 04:29:08;;;;;;;;;31.00;29.25;;;;;7.58;100.00;103246.03;4969368;28;45136;-79
2022/03/18 04:31:33;;;;;;;;;33.00;31.50;;;;;7.19;100.00;103178.91;4970316;28;45076;-80
2022/03/18 04:33:59;;;;;;;;;32.75;27.25;;;;;7.59;100.00;103270.38;4987874;28;44938;-79
2022/03/18 04:36:24;;;;;;;;;34.75;31.25;;;;;7.69;100.00;103288.25;4985090;28;44941;-79
2022/03/18 04:38:49;;;;;;;;;30.75;26.50;;;;;7.67;100.00;103275.69;4974403;28;45397;-79
2022/03/18 04:41:15;;;;;;;;;31.00;29.75;;;;;7.54;100.00;103264.13;4974062;28;45044;-79
2022/03/18 04:43:40;;;;;;;;;38.25;32.00;;;;;7.69;100.00;103299.09;4984459;28;45222;-79
2022/03/18 04:46:05;;;;;;;;;37.75;31.50;;;;;7.70;100.00;103291.88;4954150;28;44993;-80
2022/03/18 04:48:31;;;;;;;;;33.00;31.50;;;;;7.69;100.00;103304.50;4973586;28;45666;-79
2022/03/18 04:50:57;;;;;;;;;32.75;26.75;;;;;7.66;100.00;103290.16;4980266;28;45186;-80
2022/03/18 04:53:22;;;;;;;;;29.50;27.75;;;;;7.66;100.00;103298.28;4973506;28;45626;-79
2022/03/18 04:55:47;;;;;;;;;28.50;25.75;;;;;7.61;100.00;103297.44;4991241;28;45040;-80
2022/03/18 04:58:13;;;;;;;;;37.00;30.00;;;;;7.62;100.00;103285.69;4980821;28;45022;-79
2022/03/18 05:00:38;;;;;;;;;35.00;30.00;;;;;7.60;100.00;103290.19;4977524;28;45172;-80
2022/03/18 05:03:03;;;;;;;;;27.50;24.00;;;;;7.50;100.00;103282.25;4991315;28;45023;-80
2022/03/18 05:05:29;;;;;;;;;29.50;29.00;;;;;7.38;100.00;103266.16;4979406;28;45088;-79
2022/03/18 05:07:54;;;;;;;;;34.25;26.00;;;;;7.57;100.00;103293.88;4979452;28;45492;-79
2022/03/18 05:10:20;;;;;;;;;30.25;28.25;;;;;7.50;100.00;103290.34;4971286;28;44925;-80
2022/03/18 05:12:46;;;;;;;;;30.75;25.25;;;;;7.32;100.00;103262.63;4975781;28;45133;-81
2022/03/18 05:15:12;;;;;;;;;28.25;26.50;;;;;7.51;100.00;103302.97;4980199;28;45129;-79
2022/03/18 05:17:39;;;;;;;;;30.75;27.25;;;;;7.30;100.00;103276.19;4988540;28;45643;-79
2022/03/18 05:20:07;;;;;;;;;26.25;24.25;;;;;7.45;100.00;103311.19;4972468;28;45150;-79
2022/03/18 05:22:32;;;;;;;;;26.75;26.25;;;;;7.23;100.00;103277.16;4979626;28;45056;-81
2022/03/18 05:24:59;;;;;;;;;29.75;25.50;;;;;7.39;100.00;103313.03;4979027;28;45229;-80
2022/03/18 05:27:25;;;;;;;;;26.00;22.75;;;;;7.24;100.00;103296.06;4982291;28;45119;-81
2022/03/18 05:29:50;;;;;;;;;21.50;21.25;;;;;7.13;100.00;103286.31;4993072;28;45059;-78
2022/03/18 05:32:16;;;;;;;;;23.00;22.50;;;;;7.01;100.00;103261.22;4979586;28;45301;-77
2022/03/18 05:34:41;;;;;;;;;32.25;26.25;;;;;7.39;100.00;103329.28;4971823;28;45087;-78
2022/03/18 05:37:07;;;;;;;;;23.75;23.50;;;;;7.36;100.00;103324.81;4986726;28;45534;-78
2022/03/18 05:39:33;;;;;;;;;31.00;24.50;;;;;7.37;100.00;103332.03;4984900;28;45178;-78
2022/03/18 05:41:59;;;;;;;;;24.50;23.75;;;;;6.88;100.00;103240.63;4973121;28;44983;-78
2022/03/18 05:44:24;;;;;;;;;22.25;19.50;;;;;7.00;100.00;103254.00;4990849;28;45063;-78
2022/03/18 05:46:50;;;;;;;;;26.75;23.00;;;;;7.36;100.00;103332.03;4990596;28;45879;-78
2022/03/18 05:49:17;;;;;;;;;28.50;23.00;;;;;7.25;100.00;103316.84;4989648;28;45115;-78
2022/03/18 05:51:43;;;;;;;;;25.50;22.50;;;;;7.33;100.00;103337.47;4986880;28;45095;-78
2022/03/18 05:54:08;;;;;;;;;20.75;20.75;;;;;7.05;100.00;103286.41;4990502;28;45351;-78
2022/03/18 05:56:54;;;;;;;;;28.25;24.50;;;;;7.17;100.00;103310.59;4982147;28;45845;-78
2022/03/18 05:59:27;;;;;;;;;30.75;25.25;;;;;7.21;100.00;103328.59;4975592;28;45557;-78
2022/03/18 06:01:54;;;;;;;;;24.50;22.25;;;;;7.29;100.00;103331.19;4968863;28;44927;-79
2022/03/18 06:04:20;;;;;;;;;27.50;24.75;;;;;7.21;100.00;103315.06;4968995;28;45295;-79
2022/03/18 06:06:47;;;;;;;;;24.25;21.25;;;;;7.11;100.00;103313.38;4975375;28;45116;-80
2022/03/18 06:11:58;;;;;;;;;27.75;24.25;;;;;6.82;100.00;103277.66;4985402;28;45321;-79
2022/03/18 06:14:25;;;;;;;;;34.00;26.00;;;;;7.18;100.00;103343.97;4987137;28;44933;-78
2022/03/18 06:16:55;;;;;;;;;24.75;23.00;;;;;7.19;100.00;103346.63;4978314;28;47618;-79
2022/03/18 06:19:22;;;;;;;;;24.50;20.25;;;;;6.97;100.00;103301.81;4979140;28;45126;-79
2022/03/18 06:21:48;;;;;;;;;20.75;20.25;;;;;7.18;100.00;103336.75;4989928;28;45274;-78
2022/03/18 06:24:15;;;;;;;;;22.25;19.75;;;;;7.17;100.00;103347.59;4990646;28;45149;-78
2022/03/18 06:26:40;;;;;;;;;23.75;23.50;;;;;7.14;100.00;103343.09;4985896;28;45141;-78
2022/03/18 06:29:09;;;;;;;;;25.75;23.50;;;;;6.84;100.00;103295.63;4989609;28;45124;-79
2022/03/18 06:31:35;;;;;;;;;24.00;21.00;;;;;6.59;100.00;103272.47;4987533;28;45190;-79
2022/03/18 06:34:01;;;;;;;;;29.00;25.25;;;;;7.08;100.00;103356.69;4988368;28;45124;-79
2022/03/18 06:36:27;;;;;;;;;24.50;22.00;;;;;6.99;100.00;103337.84;4988760;28;45202;-78
2022/03/18 06:38:52;;;;;;;;;24.50;21.50;;;;;6.85;100.00;103318.19;4989855;28;45040;-79
2022/03/18 06:41:19;;;;;;;;;27.00;19.50;;;;;7.10;100.00;103360.28;4982621;28;45351;-79
2022/03/18 06:43:46;;;;;;;;;23.75;22.25;;;;;7.09;100.00;103358.47;4988037;28;44984;-78
2022/03/18 06:46:11;;;;;;;;;24.50;24.50;;;;;6.42;100.00;103234.81;4987394;28;46048;-79
2022/03/18 06:48:37;;;;;;;;;25.50;23.00;;;;;6.85;100.00;103313.69;4986325;28;45531;-79
2022/03/18 06:51:02;;;;;;;;;27.25;23.25;;;;;7.10;100.00;103352.19;4987803;28;45193;-79
2022/03/18 06:53:28;;;;;;;;;28.50;24.25;;;;;6.45;100.00;103235.69;4990093;28;45440;-76
2022/03/18 06:55:53;;;;;;;;;30.00;24.50;;;;;7.07;100.00;103352.19;4991015;28;45757;-79
2022/03/18 06:58:18;;;;;;;;;28.00;24.00;;;;;6.82;100.00;103304.69;4977986;28;45111;-79
2022/03/18 07:00:44;;;;;;;;;62.50;47.50;;;;;7.07;100.00;103354.91;4972462;28;45471;-79
2022/03/18 07:03:09;;;;;;;;;32.25;27.75;;;;;6.73;100.00;103293.06;4972449;28;45025;-80
2022/03/18 07:05:35;;;;;;;;;27.75;20.50;;;;;7.06;100.00;103352.22;4971662;28;45320;-79
2022/03/18 07:08:00;;;;;;;;;24.25;19.75;;;;;7.06;100.00;103342.31;4973713;28;45070;-77
2022/03/18 07:10:28;;;;;;;;;32.25;28.75;;;;;7.13;100.00;103354.84;4972815;28;45025;-80
2022/03/18 07:12:54;;;;;;;;;25.50;24.00;;;;;7.02;100.00;103344.13;4973097;28;45159;-80
2022/03/18 07:15:19;;;;;;;;;26.50;23.75;;;;;7.14;100.00;103356.63;4972014;28;45900;-80
2022/03/18 07:18:00;;;;;;;;;27.00;24.25;;;;;7.14;100.00;103353.03;4972293;28;45297;-79
2022/03/18 07:20:34;;;;;;;;;19.25;19.25;;;;;7.14;100.00;103356.63;4970737;28;45166;-79
2022/03/18 07:23:16;;;;;;;;;30.50;28.75;;;;;7.08;100.00;103348.56;4971965;28;45219;-79
2022/03/18 07:25:51;;;;;;;;;24.75;24.75;;;;;7.17;100.00;103358.41;4972175;28;45188;-79
2022/03/18 07:28:17;;;;;;;;;29.75;25.00;;;;;6.85;100.00;103293.84;4973972;28;45076;-78
2022/03/18 07:30:44;;;;;;;;;28.00;25.00;;;;;7.23;100.00;103359.22;4971415;28;45051;-79
2022/03/18 07:33:13;;;;;;;;;29.50;24.00;;;;;7.05;100.00;103324.28;4969731;28;45396;-80
2022/03/18 07:35:39;;;;;;;;;29.50;28.25;;;;;7.19;100.00;103332.22;4971833;28;45430;-79
2022/03/18 07:38:09;;;;;;;;;26.00;23.50;;;;;7.31;100.00;103350.16;4971326;28;45143;-78
2022/03/18 07:40:37;;;;;;;;;29.25;26.00;;;;;7.24;100.00;103339.38;4970726;28;45076;-77
2022/03/18 07:43:05;;;;;;;;;31.25;24.00;;;;;7.35;100.00;103346.47;4970918;28;45331;-78
2022/03/18 07:45:32;;;;;;;;;25.50;24.25;;;;;7.36;100.00;103345.56;4989213;28;46036;-78
2022/03/18 07:48:03;;;;;;;;;20.25;18.50;;;;;7.28;100.00;103327.59;4971515;28;45063;-76
2022/03/18 07:50:30;;;;;;;;;31.50;27.50;;;;;7.45;100.00;103349.06;4990304;28;44958;-78
2022/03/18 07:52:58;;;;;;;;;29.75;26.75;;;;;7.42;100.00;103332.84;4990837;28;45067;-77
2022/03/18 07:55:27;;;;;;;;;32.75;30.75;;;;;7.40;100.00;103340.13;4991416;28;45696;-77
2022/03/18 07:57:54;;;;;;;;;28.00;23.50;;;;;7.53;100.00;103355.25;4992590;28;45003;-78
2022/03/18 08:00:20;;;;;;;;;28.75;25.25;;;;;7.57;100.00;103366.97;4979305;28;45137;-76
2022/03/18 08:02:47;;;;;;;;;26.75;25.50;;;;;7.20;100.00;103297.06;4971676;28;45154;-75
2022/03/18 08:05:14;;;;;;;;;28.50;24.75;;;;;7.65;100.00;103361.44;4972014;28;45558;-78
2022/03/18 08:07:41;;;;;;;;;29.75;24.75;;;;;7.68;100.00;103356.00;4971913;28;45392;-77
2022/03/18 08:10:08;;;;;;;;;23.00;20.25;;;;;7.67;100.00;103346.09;4975436;28;44910;-77
2022/03/18 08:12:34;;;;;;;;;26.00;25.75;;;;;7.63;100.00;103342.50;4974297;28;45231;-78
2022/03/18 08:15:03;;;;;;;;;29.50;28.50;;;;;7.75;100.00;103346.84;4973286;28;45434;-77
2022/03/18 08:17:29;;;;;;;;;22.75;20.50;;;;;7.84;100.00;103353.97;4972226;28;45144;-77
2022/03/18 08:19:55;;;;;;;;;26.00;24.50;;;;;7.89;100.00;103361.09;4971620;28;44952;-77
2022/03/18 08:22:21;;;;;;;;;25.50;22.25;;;;;7.94;100.00;103361.94;4971352;28;45198;-77
2022/03/18 08:24:48;;;;;;;;;24.00;23.25;;;;;7.99;100.00;103373.59;4970877;28;45651;-76
2022/03/18 08:27:14;;;;;;;;;25.75;21.50;;;;;8.03;100.00;103375.34;4972065;28;45362;-75
2022/03/18 08:29:39;;;;;;;;;24.50;21.50;;;;;7.74;100.00;103312.56;4969002;28;45155;-77
2022/03/18 08:32:06;;;;;;;;;19.75;15.00;;;;;8.05;100.00;103375.31;4990800;28;44996;-77
2022/03/18 08:34:32;;;;;;;;;25.25;22.00;;;;;8.16;100.00;103376.09;4990244;28;45561;-76
2022/03/18 08:36:57;;;;;;;;;19.50;19.50;;;;;8.23;100.00;103387.72;4991257;28;44906;-77
2022/03/18 08:39:22;;;;;;;;;20.25;19.50;;;;;8.27;100.00;103373.22;4990860;28;45410;-77
2022/03/18 08:41:47;;;;;;;;;22.00;20.50;;;;;8.28;100.00;103375.00;4985251;28;45295;-79
2022/03/18 08:44:14;;;;;;;;;26.50;23.00;;;;;8.32;100.00;103380.34;4988107;28;45876;-76
2022/03/18 08:46:39;;;;;;;;;24.25;21.50;;;;;8.37;100.00;103364.06;4988687;28;45140;-79
2022/03/18 08:49:05;;;;;;;;;23.25;20.75;;;;;7.83;100.00;103266.41;4988404;28;45009;-78
2022/03/18 08:51:30;;;;;;;;;20.25;19.25;;;;;8.31;100.00;103348.75;4989364;28;44958;-79
2022/03/18 08:53:56;;;;;;;;;21.25;19.25;;;;;8.40;100.00;103347.72;4987118;28;45302;-77
2022/03/18 08:56:24;;;;;;;;;23.75;23.50;;;;;8.48;100.00;103364.78;4984340;28;45225;-81
2022/03/18 08:58:51;;;;;;;;;22.00;19.50;;;;;8.50;100.00;103345.75;4989739;28;45168;-76
2022/03/18 09:01:16;;;;;;;;;21.00;19.75;;;;;8.65;100.00;103367.19;4990631;28;45258;-77
2022/03/18 09:03:41;;;;;;;;;23.25;18.75;;;;;8.70;100.00;103369.81;4987616;28;45460;-78
2022/03/18 09:06:07;;;;;;;;;24.50;21.00;;;;;8.53;100.00;103340.28;4991529;28;45221;-78
2022/03/18 09:08:32;;;;;;;;;23.00;21.00;;;;;8.42;100.00;103310.66;4993257;28;45157;-78
2022/03/18 09:10:58;;;;;;;;;19.50;19.50;;;;;8.83;100.00;103377.72;4987289;28;45068;-77
2022/03/18 09:13:23;;;;;;;;;21.50;19.75;;;;;8.31;100.00;103290.91;4987511;28;46631;-79
2022/03/18 09:15:50;;;;;;;;;25.00;18.00;;;;;8.91;100.00;103371.25;4989773;28;45439;-78
2022/03/18 09:18:16;;;;;;;;;14.75;14.50;;;;;8.95;100.00;103371.19;4984473;28;45019;-76
2022/03/18 09:20:42;;;;;;;;;21.75;18.00;;;;;9.00;100.00;103374.69;4988635;28;46231;-77
2022/03/18 09:23:08;;;;;;;;;17.50;16.25;;;;;8.97;100.00;103371.16;4971641;28;46666;-78
2022/03/18 09:25:34;;;;;;;;;22.75;17.75;;;;;9.11;100.00;103366.34;4990484;28;45167;-77
2022/03/18 09:28:00;;;;;;;;;18.00;14.25;;;;;9.16;100.00;103374.41;4990415;28;45273;-78
2022/03/18 09:30:25;;;;;;;;;17.00;15.00;;;;;9.02;100.00;103334.88;4991099;28;45066;-80
2022/03/18 09:32:51;;;;;;;;;19.00;16.50;;;;;9.25;100.00;103390.53;4986117;28;45972;-82
2022/03/18 09:35:16;;;;;;;;;15.75;13.00;;;;;9.28;100.00;103369.66;4988888;28;45215;-76
2022/03/18 09:37:43;;;;;;;;;14.50;14.25;;;;;9.34;100.00;103371.34;4974685;28;45666;-77
2022/03/18 09:40:12;;;;;;;;;17.50;16.00;;;;;9.33;100.00;103372.28;4979681;28;45759;-78
2022/03/18 09:42:53;;;;;;;;;17.75;13.00;;;;;9.44;100.00;103367.53;4985363;28;46093;-80
2022/03/18 09:45:20;;;;;;;;;17.75;16.00;;;;;9.54;100.00;103366.41;4988932;28;45173;-79
2022/03/18 09:47:47;;;;;;;;;17.25;13.50;;;;;8.88;97.93;103262.81;4992125;28;45616;-79
2022/03/18 09:50:12;;;;;;;;;15.00;14.00;;;;;9.64;97.20;103372.56;4966732;28;45247;-78
2022/03/18 09:52:38;;;;;;;;;15.25;13.00;;;;;9.29;90.65;103308.13;4976837;28;45356;-79
2022/03/18 09:55:04;;;;;;;;;17.75;16.00;;;;;9.67;90.94;103352.56;4982376;28;45292;-76
2022/03/18 09:57:30;;;;;;;;;12.25;11.00;;;;;9.81;92.18;103364.03;4985295;28;45433;-77
2022/03/18 09:59:55;;;;;;;;;18.50;17.75;;;;;9.32;92.63;103267.31;4980045;28;45246;-78
2022/03/18 10:02:24;;;;;;;;;16.50;11.75;;;;;9.92;91.45;103364.69;4962936;28;47537;-78
2022/03/18 10:04:55;;;;;;;;;15.00;13.00;;;;;9.91;92.26;103362.00;4970632;28;45312;-76
2022/03/18 10:07:21;;;;;;;;;16.25;14.00;;;;;9.61;87.40;103305.59;4962867;28;45719;-79
2022/03/18 10:09:47;;;;;;;;;18.50;17.00;;;;;10.03;86.40;103364.44;4961013;28;45434;-77
2022/03/18 10:12:30;;;;;;;;;19.75;13.50;;;;;10.02;85.98;103359.94;4949617;28;47912;-75
2022/03/18 10:15:10;;;;;;;;;10.75;9.25;;;;;9.58;85.21;103283.06;4969151;28;45530;-78
2022/03/18 10:17:42;;;;;;;;;13.25;11.00;;;;;10.19;83.81;103378.56;4953435;28;44964;-76
2022/03/18 10:20:22;;;;;;;;;14.25;13.25;;;;;10.14;84.09;103357.84;4971271;28;45102;-76
2022/03/18 10:22:47;;;;;;;;;15.25;11.50;;;;;10.16;80.81;103356.91;4970938;28;46722;-76
2022/03/18 10:25:37;;;;;;;;;12.00;11.00;;;;;10.08;84.98;103328.06;4971864;28;45011;-78
2022/03/18 10:28:06;;;;;;;;;17.50;16.00;;;;;10.37;82.15;103360.03;4974170;28;45343;-76
2022/03/18 10:30:32;;;;;;;;;18.00;16.25;;;;;10.41;81.98;103360.84;4973879;28;45099;-80
2022/03/18 10:32:58;;;;;;;;;5.00;5.00;;;;;9.82;80.68;103239.00;4973785;28;45578;-78
2022/03/18 10:38:34;;;;;;;;;15.25;11.25;;;;;10.53;81.96;103351.47;4993940;28;45117;-79
2022/03/18 10:41:23;;;;;;;;;15.25;12.50;;;;;10.58;81.45;103349.53;4993435;28;45185;-79
2022/03/18 10:43:52;;;;;;;;;14.67;11.00;;;;;10.62;82.00;103344.00;4994834;28;45529;-77
2022/03/18 10:46:19;;;;;;;;;10.67;10.67;;;;;10.47;76.42;103314.47;4994194;28;45299;-79
2022/03/18 10:49:04;;;;;;;;;11.33;11.33;;;;;10.70;76.87;103334.75;4994330;28;45151;-80
2022/03/18 10:51:29;;;;;;;;;10.00;9.33;;;;;10.75;73.29;103343.69;4969000;28;45449;-81
2022/03/18 10:53:56;;;;;;;;;13.33;10.33;;;;;10.77;70.44;103331.81;4992090;28;45610;-80
2022/03/18 10:56:21;;;;;;;;;15.33;12.00;;;;;10.52;70.35;103284.44;4990566;28;45281;-79
2022/03/18 10:58:47;;;;;;;;;11.00;11.00;;;;;10.55;69.18;103278.91;4993554;28;45279;-79
2022/03/18 11:01:14;;;;;;;;;13.00;10.00;;;;;10.89;73.75;103347.81;4992666;28;45201;-78
2022/03/18 11:03:40;;;;;;;;;10.33;9.00;;;;;10.94;63.45;103335.91;4991720;28;45331;-80
2022/03/18 11:06:07;;;;;;;;;17.33;13.67;;;;;10.59;62.66;103299.63;4992508;28;45075;-75
2022/03/18 11:08:42;;;;;;;;;11.67;10.00;;;;;10.83;66.07;103308.97;4993481;28;45028;-76
2022/03/18 11:11:15;;;;;;;;;15.33;12.67;;;;;11.04;57.11;103356.50;4975008;28;45094;-78
2022/03/18 11:14:06;;;;;;;;;10.33;10.00;;;;;11.11;63.41;103349.97;4969112;28;46087;-77
2022/03/18 11:16:40;;;;;;;;;11.67;11.67;;;;;11.01;62.51;103311.22;4992393;28;45044;-78
2022/03/18 11:19:09;;;;;;;;;10.67;10.00;;;;;11.17;59.02;103333.44;4992548;28;44950;-76